createdAt,value
2018-09-18T00:00:50.288Z,4.50
2018-09-18T00:03:18.372Z,4.77
2018-09-18T00:05:46.456Z,4.40
2018-09-18T00:08:14.667Z,5.03
2018-09-18T00:10:42.757Z,4.97
2018-09-18T00:13:10.833Z,4.20
2018-09-18T00:15:38.924Z,4.30
2018-09-18T00:18:07.007Z,4.47
2018-09-18T00:20:35.124Z,4.17
2018-09-18T00:23:03.210Z,4.37
2018-09-18T00:25:31.316Z,4.20
2018-09-18T00:27:59.477Z,4.80
2018-09-18T00:30:27.625Z,4.73
2018-09-18T00:32:55.722Z,4.20
2018-09-18T00:35:23.792Z,4.80
2018-09-18T00:37:51.876Z,4.23
2018-09-18T00:40:19.945Z,4.53
2018-09-18T00:42:48.038Z,4.60
2018-09-18T00:45:16.157Z,4.50
2018-09-18T00:47:44.307Z,4.10
2018-09-18T00:50:12.389Z,4.27
2018-09-18T00:52:40.456Z,4.13
2018-09-18T00:55:08.544Z,4.17
2018-09-18T00:57:36.637Z,4.00
2018-09-18T01:00:04.877Z,4.57
2018-09-18T01:02:32.973Z,4.30
2018-09-18T01:05:01.065Z,4.27
2018-09-18T01:07:29.185Z,4.10
2018-09-18T01:09:57.361Z,4.30
2018-09-18T01:12:25.441Z,4.03
2018-09-18T01:14:53.571Z,4.13
2018-09-18T01:17:21.681Z,3.93
2018-09-18T01:19:49.766Z,4.10
2018-09-18T01:22:17.857Z,3.70
2018-09-18T01:24:45.967Z,4.30
2018-09-18T01:27:14.052Z,4.10
2018-09-18T01:29:42.381Z,3.80
2018-09-18T01:32:10.456Z,4.67
2018-09-18T01:34:38.520Z,4.53
2018-09-18T01:37:06.619Z,4.70
2018-09-18T01:39:34.732Z,4.43
2018-09-18T01:44:37.561Z,5.30
2018-09-18T01:47:05.645Z,4.40
2018-09-18T01:49:33.729Z,4.70
2018-09-18T01:52:01.869Z,4.43
2018-09-18T01:54:30.008Z,4.53
2018-09-18T01:56:58.117Z,4.80
2018-09-18T01:59:26.227Z,5.13
2018-09-18T02:01:54.325Z,4.40
2018-09-18T02:04:22.451Z,4.70
2018-09-18T02:06:50.520Z,4.80
2018-09-18T02:09:18.584Z,5.00
2018-09-18T02:11:46.668Z,4.37
2018-09-18T02:14:14.750Z,5.00
2018-09-18T02:16:42.837Z,4.37
2018-09-18T02:19:10.922Z,4.80
2018-09-18T02:21:38.988Z,4.70
2018-09-18T02:24:07.068Z,4.80
2018-09-18T02:26:35.248Z,4.67
2018-09-18T02:29:03.332Z,5.10
2018-09-18T02:31:31.487Z,4.93
2018-09-18T02:33:59.649Z,4.80
2018-09-18T02:36:27.821Z,5.30
2018-09-18T02:38:56.467Z,5.17
2018-09-18T02:41:24.588Z,5.37
2018-09-18T02:43:52.675Z,4.90
2018-09-18T02:46:20.777Z,5.07
2018-09-18T02:48:48.911Z,5.03
2018-09-18T02:51:16.984Z,4.63
2018-09-18T02:53:45.069Z,4.70
2018-09-18T02:56:13.145Z,4.57
2018-09-18T02:58:41.228Z,4.60
2018-09-18T03:01:09.361Z,4.70
2018-09-18T03:03:37.474Z,4.67
2018-09-18T03:06:05.553Z,4.70
2018-09-18T03:08:33.709Z,5.10
2018-09-18T03:11:01.806Z,5.20
2018-09-18T03:13:29.956Z,4.63
2018-09-18T03:15:58.113Z,5.33
2018-09-18T03:18:26.212Z,4.77
2018-09-18T03:20:54.344Z,4.70
2018-09-18T03:23:22.410Z,4.60
2018-09-18T03:25:50.495Z,5.03
2018-09-18T03:28:18.573Z,5.00
2018-09-18T03:30:46.668Z,4.83
2018-09-18T03:33:14.736Z,5.00
2018-09-18T03:35:42.893Z,4.70
2018-09-18T03:38:10.967Z,5.13
2018-09-18T03:40:39.056Z,4.70
2018-09-18T03:43:07.142Z,5.27
2018-09-18T03:45:35.280Z,5.53
2018-09-18T03:48:03.431Z,5.00
2018-09-18T03:50:31.554Z,5.03
2018-09-18T03:52:59.684Z,5.40
2018-09-18T03:55:27.992Z,5.43
2018-09-18T03:57:56.449Z,5.47
2018-09-18T04:00:24.568Z,5.27
2018-09-18T04:02:52.748Z,5.07
2018-09-18T04:05:20.789Z,5.47
2018-09-18T04:07:49.677Z,5.93
2018-09-18T04:10:17.801Z,6.27
2018-09-18T04:12:45.883Z,5.67
2018-09-18T04:15:13.955Z,5.43
2018-09-18T04:17:42.033Z,7.33
2018-09-18T04:20:10.129Z,6.13
2018-09-18T04:22:38.200Z,5.53
2018-09-18T04:25:06.312Z,5.70
2018-09-18T04:27:34.405Z,5.60
2018-09-18T04:30:02.611Z,5.23
2018-09-18T04:32:30.784Z,5.20
2018-09-18T04:34:59.003Z,5.40
2018-09-18T04:37:27.223Z,5.67
2018-09-18T04:39:55.307Z,5.47
2018-09-18T04:42:23.401Z,5.80
2018-09-18T04:44:51.470Z,5.10
2018-09-18T04:47:19.585Z,5.20
2018-09-18T04:49:47.711Z,5.50
2018-09-18T04:52:15.797Z,5.83
2018-09-18T04:54:43.937Z,5.60
2018-09-18T04:57:11.998Z,5.97
2018-09-18T04:59:40.083Z,5.73
2018-09-18T05:02:08.217Z,5.47
2018-09-18T05:04:36.465Z,6.00
2018-09-18T05:07:04.565Z,6.10
2018-09-18T05:09:32.705Z,6.53
2018-09-18T05:12:00.946Z,6.77
2018-09-18T05:14:29.066Z,6.10
2018-09-18T05:16:57.250Z,6.63
2018-09-18T05:19:25.477Z,6.40
2018-09-18T05:21:53.557Z,6.03
2018-09-18T05:24:21.638Z,6.20
2018-09-18T05:26:49.764Z,6.03
2018-09-18T05:29:18.171Z,6.80
2018-09-18T05:31:46.252Z,6.20
2018-09-18T05:34:14.349Z,7.43
2018-09-18T05:36:42.571Z,6.10
2018-09-18T05:39:11.690Z,6.27
2018-09-18T05:41:39.993Z,5.90
2018-09-18T05:44:08.099Z,5.80
2018-09-18T05:46:36.589Z,5.93
2018-09-18T05:49:04.684Z,6.37
2018-09-18T05:51:32.853Z,6.77
2018-09-18T05:54:01.015Z,5.70
2018-09-18T05:56:29.200Z,6.20
2018-09-18T05:58:57.361Z,6.37
2018-09-18T06:01:25.544Z,6.17
2018-09-18T06:03:53.605Z,10.87
2018-09-18T06:06:21.725Z,6.17
2018-09-18T06:08:56.636Z,6.23
2018-09-18T06:11:24.745Z,6.37
2018-09-18T06:13:52.932Z,5.53
2018-09-18T06:16:21.008Z,6.13
2018-09-18T06:18:49.190Z,5.97
2018-09-18T06:21:17.212Z,5.60
2018-09-18T06:23:45.313Z,5.80
2018-09-18T06:26:13.466Z,7.27
2018-09-18T06:28:41.554Z,6.60
2018-09-18T06:31:09.670Z,6.10
2018-09-18T06:33:37.837Z,6.80
2018-09-18T06:36:06.000Z,5.87
2018-09-18T06:38:34.136Z,6.60
2018-09-18T06:41:02.230Z,5.93
2018-09-18T06:43:30.361Z,5.97
2018-09-18T06:45:58.528Z,6.67
2018-09-18T06:48:27.240Z,5.63
2018-09-18T06:50:55.313Z,6.10
2018-09-18T06:53:23.393Z,6.03
2018-09-18T06:55:51.507Z,5.40
2018-09-18T06:58:19.645Z,5.23
2018-09-18T07:00:48.716Z,11.13
2018-09-18T07:03:16.860Z,5.87
2018-09-18T07:05:45.070Z,6.17
2018-09-18T07:08:13.081Z,7.40
2018-09-18T07:10:41.190Z,5.60
2018-09-18T07:13:09.288Z,5.70
2018-09-18T07:15:37.452Z,6.07
2018-09-18T07:18:05.635Z,6.17
2018-09-18T07:20:33.666Z,6.03
2018-09-18T07:23:01.796Z,5.03
2018-09-18T07:25:30.032Z,5.87
2018-09-18T07:27:58.394Z,6.07
2018-09-18T07:30:26.979Z,5.70
2018-09-18T07:32:55.116Z,5.13
2018-09-18T07:35:23.240Z,5.90
2018-09-18T07:37:51.375Z,6.30
2018-09-18T07:40:19.540Z,5.50
2018-09-18T07:42:47.680Z,5.10
2018-09-18T07:45:15.832Z,5.07
2018-09-18T07:47:44.070Z,4.83
2018-09-18T07:50:12.448Z,4.60
2018-09-18T07:52:40.570Z,5.17
2018-09-18T07:55:08.645Z,5.67
2018-09-18T07:57:36.873Z,5.20
2018-09-18T08:00:05.257Z,5.40
2018-09-18T08:02:33.390Z,5.07
2018-09-18T08:05:01.664Z,4.40
2018-09-18T08:07:29.858Z,4.97
2018-09-18T08:09:58.064Z,5.10
2018-09-18T08:12:26.203Z,5.17
2018-09-18T08:14:54.367Z,4.87
2018-09-18T08:17:22.466Z,4.63
2018-09-18T08:19:50.649Z,5.00
2018-09-18T08:22:18.704Z,4.77
2018-09-18T08:24:46.802Z,4.50
2018-09-18T08:27:14.901Z,4.80
2018-09-18T08:29:43.037Z,5.47
2018-09-18T08:32:11.113Z,5.13
2018-09-18T08:34:39.188Z,4.90
2018-09-18T08:37:07.392Z,5.30
2018-09-18T08:39:35.618Z,5.27
2018-09-18T08:42:03.880Z,4.87
2018-09-18T08:44:32.000Z,5.90
2018-09-18T08:47:00.273Z,5.40
2018-09-18T08:49:28.581Z,6.97
2018-09-18T08:51:56.879Z,4.97
2018-09-18T08:54:24.909Z,6.13
2018-09-18T08:56:52.996Z,11.60
2018-09-18T08:59:22.958Z,4.90
2018-09-18T09:01:51.683Z,4.60
2018-09-18T09:04:19.768Z,4.97
2018-09-18T09:06:47.958Z,4.80
2018-09-18T09:09:16.120Z,4.50
2018-09-18T09:11:45.261Z,4.73
2018-09-18T09:14:13.425Z,4.40
2018-09-18T09:16:41.947Z,4.33
2018-09-18T09:19:10.369Z,5.00
2018-09-18T09:21:38.484Z,5.17
2018-09-18T09:24:06.656Z,5.20
2018-09-18T09:26:34.903Z,5.07
2018-09-18T09:29:02.965Z,5.57
2018-09-18T09:31:31.113Z,5.50
2018-09-18T09:33:59.388Z,5.33
2018-09-18T09:36:27.860Z,5.10
2018-09-18T09:38:56.839Z,5.10
2018-09-18T09:41:25.613Z,4.47
2018-09-18T09:43:53.825Z,4.07
2018-09-18T09:46:21.838Z,4.80
2018-09-18T09:48:50.569Z,4.23
2018-09-18T09:51:19.128Z,4.30
2018-09-18T09:53:47.062Z,8.23
2018-09-18T09:56:15.156Z,5.93
2018-09-18T09:58:43.284Z,4.47
2018-09-18T10:01:16.930Z,4.17
2018-09-18T10:03:45.220Z,4.77
2018-09-18T10:06:13.408Z,4.40
2018-09-18T10:08:41.528Z,4.30
2018-09-18T10:11:09.744Z,4.17
2018-09-18T10:13:38.027Z,4.10
2018-09-18T10:16:06.182Z,4.37
2018-09-18T10:18:34.261Z,4.37
2018-09-18T10:21:02.397Z,4.63
2018-09-18T10:23:30.707Z,4.27
2018-09-18T10:25:58.830Z,4.20
2018-09-18T10:28:26.935Z,4.40
2018-09-18T10:30:55.077Z,4.43
2018-09-18T10:33:23.186Z,4.23
2018-09-18T10:35:51.386Z,4.60
2018-09-18T10:38:19.453Z,4.30
2018-09-18T10:40:47.657Z,4.07
2018-09-18T10:43:15.669Z,3.53
2018-09-18T10:45:43.776Z,4.73
2018-09-18T10:48:11.861Z,5.23
2018-09-18T10:50:39.973Z,4.63
2018-09-18T10:53:08.105Z,4.80
2018-09-18T10:55:36.322Z,4.43
2018-09-18T10:58:04.515Z,3.90
2018-09-18T11:00:32.741Z,4.50
2018-09-18T11:03:00.914Z,3.70
2018-09-18T11:05:29.087Z,4.10
2018-09-18T11:07:57.734Z,4.30
2018-09-18T11:10:26.825Z,3.80
2018-09-18T11:12:55.705Z,3.93
2018-09-18T11:15:23.866Z,3.53
2018-09-18T11:17:51.932Z,3.90
2018-09-18T11:20:20.096Z,3.67
2018-09-18T11:22:48.077Z,3.60
2018-09-18T11:25:16.187Z,3.70
2018-09-18T11:27:44.401Z,3.57
2018-09-18T11:30:12.503Z,4.37
2018-09-18T11:32:40.600Z,4.20
2018-09-18T11:35:08.660Z,3.20
2018-09-18T11:37:36.805Z,3.33
2018-09-18T11:40:04.937Z,3.80
2018-09-18T11:42:33.084Z,3.67
2018-09-18T11:45:01.273Z,3.43
2018-09-18T11:47:29.500Z,3.37
2018-09-18T11:49:57.844Z,4.07
2018-09-18T11:52:26.001Z,3.50
2018-09-18T11:54:54.113Z,3.80
2018-09-18T11:57:22.213Z,3.60
2018-09-18T11:59:50.328Z,3.40
2018-09-18T12:02:18.412Z,4.17
2018-09-18T12:04:46.554Z,3.97
2018-09-18T12:07:14.646Z,3.60
2018-09-18T12:09:42.716Z,4.30
2018-09-18T12:12:10.790Z,3.90
2018-09-18T12:14:38.852Z,3.40
2018-09-18T12:17:07.023Z,3.47
2018-09-18T12:19:35.041Z,3.53
2018-09-18T12:22:03.283Z,3.23
2018-09-18T12:24:31.566Z,3.80
2018-09-18T12:26:59.706Z,3.97
2018-09-18T12:29:27.882Z,3.67
2018-09-18T12:31:56.072Z,3.63
2018-09-18T12:34:24.184Z,2.70
2018-09-18T12:36:52.279Z,3.00
2018-09-18T12:39:21.020Z,3.50
2018-09-18T12:41:49.191Z,3.40
2018-09-18T12:44:17.229Z,3.43
2018-09-18T12:46:45.307Z,3.50
2018-09-18T12:49:13.455Z,3.60
2018-09-18T12:51:41.524Z,3.63
2018-09-18T12:54:09.718Z,3.83
2018-09-18T12:56:37.680Z,3.77
2018-09-18T12:59:06.067Z,3.70
2018-09-18T13:01:34.158Z,3.13
2018-09-18T13:04:02.301Z,3.30
2018-09-18T13:06:30.622Z,4.03
2018-09-18T13:08:58.546Z,4.20
2018-09-18T13:11:26.696Z,4.10
2018-09-18T13:13:54.804Z,4.80
2018-09-18T13:16:22.845Z,3.27
2018-09-18T13:18:50.920Z,3.27
2018-09-18T13:21:19.016Z,3.80
2018-09-18T13:23:47.104Z,3.27
2018-09-18T13:26:15.184Z,3.90
2018-09-18T13:28:43.301Z,3.73
2018-09-18T13:31:11.400Z,3.43
2018-09-18T13:33:39.485Z,3.43
2018-09-18T13:36:07.561Z,3.20
2018-09-18T13:38:35.649Z,3.40
2018-09-18T13:41:03.943Z,3.50
2018-09-18T13:43:31.927Z,3.67
2018-09-18T13:46:00.038Z,3.87
2018-09-18T13:48:28.205Z,3.13
2018-09-18T13:50:56.319Z,3.90
2018-09-18T13:53:24.445Z,3.63
2018-09-18T13:55:52.525Z,4.83
2018-09-18T13:58:20.605Z,3.77
2018-09-18T14:00:48.726Z,3.27
2018-09-18T14:03:16.807Z,4.40
2018-09-18T14:05:44.878Z,4.97
2018-09-18T14:08:13.010Z,3.47
2018-09-18T14:10:41.096Z,3.63
2018-09-18T14:13:09.338Z,3.77
2018-09-18T14:15:37.501Z,4.10
2018-09-18T14:18:05.588Z,4.17
2018-09-18T14:20:33.687Z,4.00
2018-09-18T14:23:01.892Z,3.47
2018-09-18T14:25:30.090Z,3.73
2018-09-18T14:27:58.375Z,4.87
2018-09-18T14:30:27.162Z,4.20
2018-09-18T14:32:55.284Z,4.20
2018-09-18T14:35:23.394Z,3.80
2018-09-18T14:37:51.535Z,4.77
2018-09-18T14:40:19.603Z,4.27
2018-09-18T14:42:47.680Z,4.20
2018-09-18T14:45:15.846Z,5.13
2018-09-18T14:47:43.925Z,3.90
2018-09-18T14:50:12.052Z,3.60
2018-09-18T14:52:40.180Z,3.47
2018-09-18T14:55:08.291Z,4.10
2018-09-18T14:57:36.412Z,4.10
2018-09-18T15:00:04.600Z,3.50
2018-09-18T15:02:32.778Z,3.90
2018-09-18T15:05:01.013Z,3.57
2018-09-18T15:07:29.180Z,3.50
2018-09-18T15:09:57.365Z,3.07
2018-09-18T15:12:26.558Z,4.03
2018-09-18T15:14:54.665Z,3.40
2018-09-18T15:17:22.755Z,3.70
2018-09-18T15:19:50.826Z,4.13
2018-09-18T15:22:18.902Z,3.20
2018-09-18T15:24:47.001Z,3.90
2018-09-18T15:27:15.057Z,4.00
2018-09-18T15:29:43.173Z,3.70
2018-09-18T15:32:11.547Z,3.87
2018-09-18T15:34:39.621Z,3.63
2018-09-18T15:37:07.736Z,4.20
2018-09-18T15:39:36.084Z,4.63
2018-09-18T15:42:04.229Z,4.00
2018-09-18T15:44:32.539Z,4.27
2018-09-18T15:47:00.653Z,4.00
2018-09-18T15:49:28.858Z,3.67
2018-09-18T15:51:57.242Z,3.70
2018-09-18T15:54:25.337Z,3.83
2018-09-18T15:56:53.443Z,4.17
2018-09-18T15:59:21.613Z,3.83
2018-09-18T16:01:49.749Z,4.33
2018-09-18T16:04:17.849Z,3.97
2018-09-18T16:06:46.138Z,3.73
2018-09-18T16:09:14.274Z,4.10
2018-09-18T16:11:42.385Z,4.10
2018-09-18T16:14:10.796Z,3.80
2018-09-18T16:16:39.041Z,3.97
2018-09-18T16:19:07.494Z,3.57
2018-09-18T16:21:35.633Z,3.90
2018-09-18T16:24:03.814Z,3.57
2018-09-18T16:26:31.983Z,3.60
2018-09-18T16:29:00.159Z,3.30
2018-09-18T16:31:28.322Z,3.37
2018-09-18T16:33:56.549Z,3.27
2018-09-18T16:36:24.665Z,4.33
2018-09-18T16:38:53.457Z,3.30
2018-09-18T16:41:21.547Z,3.10
2018-09-18T16:43:49.780Z,4.03
2018-09-18T16:46:18.001Z,4.23
2018-09-18T16:48:46.191Z,4.97
2018-09-18T16:51:14.272Z,4.40
2018-09-18T16:53:47.536Z,3.40
2018-09-18T16:56:15.620Z,3.40
2018-09-18T16:58:43.748Z,3.33
2018-09-18T17:01:11.849Z,3.53
2018-09-18T17:03:39.937Z,3.67
2018-09-18T17:06:08.025Z,3.13
2018-09-18T17:08:36.148Z,4.37
2018-09-18T17:11:04.218Z,2.90
2018-09-18T17:13:32.340Z,3.07
2018-09-18T17:16:00.450Z,4.33
2018-09-18T17:18:28.900Z,4.53
2018-09-18T17:20:57.071Z,3.00
2018-09-18T17:23:25.221Z,2.90
2018-09-18T17:25:53.292Z,3.20
2018-09-18T17:28:21.469Z,2.97
2018-09-18T17:30:49.517Z,3.40
2018-09-18T17:33:17.613Z,3.00
2018-09-18T17:35:45.748Z,3.33
2018-09-18T17:38:13.852Z,2.80
2018-09-18T17:40:41.951Z,2.97
2018-09-18T17:43:10.063Z,3.30
2018-09-18T17:45:38.146Z,5.10
2018-09-18T17:48:06.248Z,2.90
2018-09-18T17:50:34.328Z,3.50
2018-09-18T17:53:02.510Z,3.87
2018-09-18T17:55:30.675Z,5.00
2018-09-18T17:57:58.812Z,3.33
2018-09-18T18:00:27.037Z,2.93
2018-09-18T18:02:55.210Z,3.27
2018-09-18T18:05:23.334Z,5.97
2018-09-18T18:07:51.396Z,3.70
2018-09-18T18:10:19.516Z,3.30
2018-09-18T18:12:47.641Z,4.00
2018-09-18T18:15:15.730Z,3.30
2018-09-18T18:17:43.823Z,3.20
2018-09-18T18:20:11.931Z,3.30
2018-09-18T18:22:40.076Z,3.80
2018-09-18T18:25:08.538Z,4.00
2018-09-18T18:27:36.642Z,3.40
2018-09-18T18:30:05.108Z,3.20
2018-09-18T18:32:33.236Z,3.73
2018-09-18T18:35:01.331Z,3.53
2018-09-18T18:37:29.549Z,3.43
2018-09-18T18:39:57.819Z,4.30
2018-09-18T18:42:25.962Z,3.93
2018-09-18T18:44:54.065Z,5.50
2018-09-18T18:47:22.168Z,4.00
2018-09-18T18:49:50.263Z,3.70
2018-09-18T18:52:18.416Z,4.13
2018-09-18T18:54:46.643Z,3.03
2018-09-18T18:57:14.603Z,3.33
2018-09-18T18:59:42.676Z,6.37
2018-09-18T19:02:10.805Z,5.50
2018-09-18T19:04:40.129Z,3.70
2018-09-18T19:07:08.236Z,6.60
2018-09-18T19:09:36.421Z,3.53
2018-09-18T19:12:04.562Z,3.90
2018-09-18T19:14:32.696Z,3.77
2018-09-18T19:17:00.813Z,3.67
2018-09-18T19:19:28.910Z,3.57
2018-09-18T19:21:57.066Z,5.43
2018-09-18T19:24:25.144Z,7.37
2018-09-18T19:26:53.228Z,6.37
2018-09-18T19:29:21.313Z,6.03
2018-09-18T19:31:49.530Z,5.77
2018-09-18T19:34:17.604Z,3.60
2018-09-18T19:36:45.739Z,3.80
2018-09-18T19:39:13.989Z,3.57
2018-09-18T19:41:42.038Z,3.60
2018-09-18T19:44:10.153Z,6.70
2018-09-18T19:46:38.259Z,3.80
2018-09-18T19:49:06.402Z,4.47
2018-09-18T19:51:34.537Z,7.00
2018-09-18T19:54:02.685Z,5.53
2018-09-18T19:56:30.913Z,6.97
2018-09-18T19:58:59.062Z,6.90
2018-09-18T20:01:27.326Z,4.33
2018-09-18T20:03:55.373Z,6.93
2018-09-18T20:06:23.464Z,6.90
2018-09-18T20:08:51.559Z,7.20
2018-09-18T20:11:19.695Z,6.60
2018-09-18T20:13:47.847Z,6.37
2018-09-18T20:16:16.075Z,6.83
2018-09-18T20:18:44.134Z,7.00
2018-09-18T20:21:12.245Z,6.67
2018-09-18T20:23:40.359Z,6.47
2018-09-18T20:26:08.457Z,6.67
2018-09-18T20:28:36.578Z,6.20
2018-09-18T20:31:04.944Z,6.70
2018-09-18T20:33:33.122Z,6.63
2018-09-18T20:36:01.276Z,6.50
2018-09-18T20:38:29.469Z,7.20
2018-09-18T20:40:57.942Z,6.60
2018-09-18T20:43:26.114Z,4.13
2018-09-18T20:45:54.198Z,7.43
2018-09-18T20:48:22.382Z,7.10
2018-09-18T20:50:50.513Z,6.90
2018-09-18T20:53:18.606Z,7.33
2018-09-18T20:55:46.689Z,6.53
2018-09-18T20:58:14.787Z,6.53
2018-09-18T21:00:42.876Z,6.53
2018-09-18T21:03:10.950Z,7.10
2018-09-18T21:05:39.045Z,7.60
2018-09-18T21:08:07.166Z,6.97
2018-09-18T21:10:35.250Z,7.73
2018-09-18T21:13:03.371Z,7.03
2018-09-18T21:15:31.731Z,6.93
2018-09-18T21:18:00.536Z,7.10
2018-09-18T21:20:28.704Z,7.67
2018-09-18T21:22:56.879Z,7.10
2018-09-18T21:25:37.753Z,6.90
2018-09-18T21:28:05.841Z,6.70
2018-09-18T21:30:34.020Z,7.40
2018-09-18T21:33:03.510Z,7.03
2018-09-18T21:35:31.728Z,6.73
2018-09-18T21:37:59.898Z,7.33
2018-09-18T21:40:28.017Z,7.70
2018-09-18T21:42:56.144Z,7.13
2018-09-18T21:45:24.255Z,7.03
2018-09-18T21:47:52.363Z,7.07
2018-09-18T21:50:20.448Z,7.47
2018-09-18T21:52:48.593Z,7.23
2018-09-18T21:55:16.723Z,7.40
2018-09-18T21:57:44.817Z,7.10
2018-09-18T22:00:13.206Z,6.53
2018-09-18T22:02:41.280Z,7.63
2018-09-18T22:05:09.963Z,7.53
2018-09-18T22:07:38.084Z,6.53
2018-09-18T22:10:06.212Z,6.50
2018-09-18T22:12:34.366Z,7.53
2018-09-18T22:15:02.405Z,6.63
2018-09-18T22:17:30.599Z,6.40
2018-09-18T22:19:58.685Z,6.23
2018-09-18T22:22:26.862Z,6.67
2018-09-18T22:24:54.889Z,7.07
2018-09-18T22:27:22.973Z,7.30
2018-09-18T22:29:51.053Z,7.07
2018-09-18T22:32:19.208Z,7.07
2018-09-18T22:34:47.297Z,7.77
2018-09-18T22:37:15.389Z,6.70
2018-09-18T22:39:43.522Z,7.57
2018-09-18T22:42:11.664Z,7.50
2018-09-18T22:44:39.784Z,7.57
2018-09-18T22:47:07.883Z,8.17
2018-09-18T22:49:35.989Z,7.47
2018-09-18T22:52:04.148Z,7.20
2018-09-18T22:54:32.258Z,7.77
2018-09-18T22:57:00.445Z,8.00
2018-09-18T22:59:28.618Z,7.50
2018-09-18T23:01:56.876Z,8.43
2018-09-18T23:04:24.887Z,8.43
2018-09-18T23:06:52.976Z,8.10
2018-09-18T23:09:21.074Z,7.50
2018-09-18T23:11:49.165Z,7.73
2018-09-18T23:14:17.256Z,7.60
2018-09-18T23:16:45.369Z,7.20
2018-09-18T23:19:13.467Z,4.97
2018-09-18T23:21:41.550Z,3.97
2018-09-18T23:24:10.062Z,5.17
2018-09-18T23:26:38.746Z,5.87
2018-09-18T23:29:07.224Z,4.80
2018-09-18T23:31:35.620Z,3.73
2018-09-18T23:34:03.799Z,6.00
2018-09-18T23:36:31.928Z,5.43
2018-09-18T23:39:00.073Z,5.03
2018-09-18T23:41:28.274Z,4.00
2018-09-18T23:43:56.365Z,4.50
2018-09-18T23:46:24.505Z,5.53
2018-09-18T23:48:52.592Z,5.23
2018-09-18T23:51:20.674Z,5.93
2018-09-18T23:53:48.754Z,5.60
2018-09-18T23:56:16.856Z,6.23
2018-09-18T23:58:44.973Z,5.17
